Aérodrome :
LOGIN :

S'inscrire | Disclaimer

   EN    FR    IT 

 










Légende :    VFR   VFR Marginal   IFR   IFR Intensif   IFR Très Intensif
Visi : 
Plafond : 
>= 8 km
>= 3000ft
5 à 8 km
1000 à 3000 ft
1500m à 5 km
500 à 1000 ft
800 à 1500m
200 à 500 ft
< 800m
< 200 ft
Symboles :   Orages  Brouillard  Fortes neiges  Fortes précipitations  Vent > 20 kt
SIGMETs :   Divers  Orages  Givrage  Turbulence  Onde Orograph.  Cendres Volcan.






- Altitude de l'aérodrome : 306 ft
- Code IATA : EMA


EGNX - Nottingham East Midlands

DERNIER METAR :
  • 190420Z 26010KT CAVOK 02/M01 Q1016

METARs EXPIRÉS :
  • 190350Z 27012KT CAVOK 02/M01 Q1016
  • 190320Z 26015KT CAVOK 03/M00 Q1016
  • 190250Z 26013KT 9999 FEW047 02/M00 Q1016
  • 190220Z 26018KT CAVOK 03/M00 Q1015
  • 190150Z 26021KT CAVOK 03/M00 Q1015

TAF TAF EGNX
Valide du 19 à 00h jusqu'au 20 à 00h UTC


182257Z 1900/1924 26015KT 9999 FEW030
PROB30
TEMPO 1900/1903 26018G30KT 6000 SHRA
BECMG 1909/1912 20012KT
BECMG 1912/1915 FEW008 BKN012
TEMPO 1912/1924 6000 RA BKN008
PROB30
TEMPO 1918/1924 22016G26KT 4000 RADZ
ATIS : +44 1332 852 852 (ext 3201)



MET'MAP, la Météo Aéronautique d'un coup d'oeil ! - Copyright ORBIFLY Décembre 2007 - Disclaimer

ORBIFLY MET'MAP TEAM :

Programmation & Développement : Alexandra Zaïnal
Sur une idée originale de : Baudouin d'Aumeries
Assistance à la programmation : Marc-Olivier Méhu
Soutien technique & logistique : Manuel Goepfert

Contact : metmap@orbifly.com




SOURCES & CREDITS :

   NOAA